Time;durP1;ratioP1;P1;durP2;ratioP2;P2;SDS_P1;SDS_P2;PMS_P1;PMS_P2;Temp;Humidity;BMP_temperature;BMP_pressure;BME280_temperature;BME280_humidity;BME280_pressure;Samples;Min_cycle;Max_cycle;Signal;HPM_P1;HPM_P2
2024/01/26 00:01:02;;;;;;;5.10;4.40;;;;;;;6.34;100.00;147642.06;5133246;27;20199;-58
2024/01/26 00:03:29;;;;;;;4.83;4.37;;;;;;;5.99;100.00;147555.16;5132747;27;20286;-57
2024/01/26 00:05:56;;;;;;;4.30;4.00;;;;;;;6.16;100.00;147596.72;5133232;27;20224;-57
2024/01/26 00:08:25;;;;;;;4.70;4.20;;;;;;;5.97;100.00;147551.41;5132870;27;20186;-58
2024/01/26 00:10:52;;;;;;;8.67;4.50;;;;;;;6.11;100.00;147585.38;5132949;27;20179;-59
2024/01/26 00:13:19;;;;;;;6.47;4.47;;;;;;;6.02;100.00;147562.75;5132737;27;20190;-58
2024/01/26 00:15:47;;;;;;;4.87;4.50;;;;;;;6.02;100.00;147562.75;5132827;27;20187;-57
2024/01/26 00:18:14;;;;;;;7.83;4.73;;;;;;;5.89;100.00;147531.25;5133078;27;20623;-57
2024/01/26 00:20:41;;;;;;;7.83;4.83;;;;;;;5.99;100.00;147555.16;5132970;27;20636;-58
2024/01/26 00:23:08;;;;;;;7.63;4.33;;;;;;;5.92;100.00;147537.53;5133015;27;20191;-58
2024/01/26 00:25:36;;;;;;;4.90;4.20;;;;;;;5.88;100.00;147527.47;5132688;27;20186;-58
2024/01/26 00:28:05;;;;;;;4.93;4.53;;;;;;;5.89;100.00;147531.25;5132941;27;20654;-58
2024/01/26 00:30:32;;;;;;;6.60;4.73;;;;;;;5.85;100.00;147521.13;5132942;27;20517;-58
2024/01/26 00:32:59;;;;;;;10.83;4.60;;;;;;;5.81;100.00;147509.81;5132643;27;20204;-57
2024/01/26 00:35:26;;;;;;;4.50;4.10;;;;;;;5.77;100.00;147499.72;5132851;27;20574;-57
2024/01/26 00:37:53;;;;;;;4.70;4.20;;;;;;;5.73;100.00;147489.66;5132943;27;20557;-59
2024/01/26 00:40:20;;;;;;;4.77;3.97;;;;;;;5.66;100.00;147473.28;5132353;27;20251;-58
2024/01/26 00:42:49;;;;;;;6.27;4.77;;;;;;;5.72;100.00;147488.41;5132847;27;20227;-59
2024/01/26 00:45:16;;;;;;;3.87;3.67;;;;;;;5.70;100.00;147483.34;5132428;27;20216;-57
2024/01/26 00:47:43;;;;;;;4.13;3.83;;;;;;;5.66;100.00;147472.00;5132498;27;20216;-58
2024/01/26 00:50:10;;;;;;;5.10;4.03;;;;;;;5.61;100.00;147460.69;5132761;27;20538;-59
2024/01/26 00:52:37;;;;;;;6.87;4.47;;;;;;;5.68;100.00;147477.06;5132392;27;20225;-57
2024/01/26 00:55:05;;;;;;;6.77;4.40;;;;;;;5.69;100.00;147479.56;5132202;27;20226;-58
2024/01/26 00:57:32;;;;;;;4.23;3.83;;;;;;;5.67;100.00;147475.81;5132696;27;20183;-59
2024/01/26 01:00:04;;;;;;;5.13;4.50;;;;;;;5.71;100.00;147485.88;5132452;27;20207;-58
2024/01/26 01:02:31;;;;;;;4.60;4.27;;;;;;;5.81;100.00;147511.03;5132342;27;20305;-58
2024/01/26 01:04:59;;;;;;;7.60;5.27;;;;;;;5.85;100.00;147521.13;5132594;27;20552;-59
2024/01/26 01:07:26;;;;;;;7.30;6.70;;;;;;;5.74;100.00;147493.41;5132273;27;20187;-57
2024/01/26 01:09:53;;;;;;;11.10;9.43;;;;;;;5.88;100.00;147528.72;5132295;27;20179;-58
2024/01/26 01:12:20;;;;;;;23.33;16.63;;;;;;;5.91;100.00;147536.28;5132156;27;20187;-58
2024/01/26 01:14:47;;;;;;;23.70;17.03;;;;;;;5.96;100.00;147548.88;5133207;27;20182;-59
2024/01/26 01:17:16;;;;;;;15.13;13.27;;;;;;;6.01;100.00;147560.22;5136023;27;20190;-57
2024/01/26 01:19:43;;;;;;;14.30;12.57;;;;;;;6.02;100.00;147561.47;5136487;27;20598;-58
2024/01/26 01:22:10;;;;;;;13.07;11.97;;;;;;;6.05;100.00;147570.28;5136078;27;20182;-57
2024/01/26 01:24:37;;;;;;;11.87;10.60;;;;;;;6.08;100.00;147576.56;5136027;27;20187;-58
2024/01/26 01:27:05;;;;;;;9.67;8.87;;;;;;;6.09;100.00;147579.09;5135980;27;20182;-57
2024/01/26 01:29:32;;;;;;;9.67;8.43;;;;;;;6.08;100.00;147577.81;5136072;27;20279;-57
2024/01/26 01:31:59;;;;;;;9.47;7.50;;;;;;;6.13;100.00;147589.16;5135886;27;20256;-59
2024/01/26 01:34:27;;;;;;;10.77;6.93;;;;;;;6.06;100.00;147571.56;5135900;27;20179;-57
2024/01/26 01:36:54;;;;;;;11.73;6.20;;;;;;;6.04;100.00;147567.75;5135901;27;20182;-57
2024/01/26 01:39:21;;;;;;;8.80;6.23;;;;;;;6.02;100.00;147561.47;5136064;27;20697;-60
2024/01/26 01:41:49;;;;;;;5.00;4.70;;;;;;;6.04;100.00;147566.50;5135696;27;20198;-58
2024/01/26 01:44:16;;;;;;;4.97;4.57;;;;;;;6.00;100.00;147556.41;5135644;27;20195;-57
2024/01/26 01:46:43;;;;;;;5.70;5.03;;;;;;;5.64;100.00;147468.28;5135599;27;20179;-58
2024/01/26 01:49:10;;;;;;;7.60;7.00;;;;;;;5.97;100.00;147550.13;5135672;27;20187;-57
2024/01/26 01:51:40;;;;;;;9.77;5.83;;;;;;;5.92;100.00;147538.81;5135615;27;20191;-58
2024/01/26 01:54:08;;;;;;;5.03;3.67;;;;;;;5.89;100.00;147530.00;5135290;27;20182;-59
2024/01/26 01:56:35;;;;;;;4.90;4.03;;;;;;;5.87;100.00;147526.19;5135517;27;20186;-58
2024/01/26 01:59:04;;;;;;;4.03;3.67;;;;;;;5.88;100.00;147527.47;5135792;27;20259;-58
2024/01/26 02:01:31;;;;;;;4.20;3.80;;;;;;;5.86;100.00;147523.66;5135326;27;20581;-58
2024/01/26 02:04:02;;;;;;;5.77;3.43;;;;;;;5.93;100.00;147540.06;5135694;27;20243;-57
2024/01/26 02:06:29;;;;;;;9.17;4.20;;;;;;;6.02;100.00;147562.75;5135311;27;20265;-57
2024/01/26 02:08:58;;;;;;;6.77;4.03;;;;;;;6.03;100.00;147565.22;5135540;27;20182;-58
2024/01/26 02:11:25;;;;;;;4.37;3.80;;;;;;;6.09;100.00;147580.34;5135561;27;20224;-59
2024/01/26 02:13:52;;;;;;;7.80;4.00;;;;;;;6.09;100.00;147579.09;5135191;27;20183;-59
2024/01/26 02:16:19;;;;;;;4.27;3.87;;;;;;;6.10;100.00;147581.63;5135008;27;20240;-57
2024/01/26 02:18:46;;;;;;;3.90;3.33;;;;;;;6.15;100.00;147594.22;5135434;27;20187;-57
2024/01/26 02:21:13;;;;;;;4.20;3.63;;;;;;;6.18;100.00;147603.03;5135206;27;20607;-58
2024/01/26 02:23:41;;;;;;;4.43;3.73;;;;;;;6.24;100.00;147618.13;5134967;27;20179;-58
2024/01/26 02:26:09;;;;;;;10.53;4.43;;;;;;;6.20;100.00;147606.78;5134937;27;20239;-58
2024/01/26 02:28:36;;;;;;;8.57;3.93;;;;;;;6.15;100.00;147594.22;5134887;27;20191;-58
2024/01/26 02:31:03;;;;;;;4.03;3.67;;;;;;;6.19;100.00;147605.56;5135194;27;20187;-58
2024/01/26 02:33:30;;;;;;;6.57;4.37;;;;;;;6.22;100.00;147613.09;5135106;27;20258;-57
2024/01/26 02:35:57;;;;;;;5.63;3.83;;;;;;;6.18;100.00;147601.78;5135087;27;20178;-57
2024/01/26 02:38:24;;;;;;;7.20;3.47;;;;;;;6.18;100.00;147603.03;5134989;27;20602;-58
2024/01/26 02:40:53;;;;;;;8.20;3.97;;;;;;;6.11;100.00;147585.38;5134981;27;20206;-57
2024/01/26 02:43:20;;;;;;;4.20;3.80;;;;;;;6.14;100.00;147592.97;5134829;27;20183;-58
2024/01/26 02:45:47;;;;;;;7.23;3.87;;;;;;;6.20;100.00;147608.03;5134515;27;20202;-58
2024/01/26 02:48:14;;;;;;;4.07;3.77;;;;;;;6.21;100.00;147609.31;5134776;27;20187;-59
2024/01/26 02:50:41;;;;;;;4.10;3.70;;;;;;;6.17;100.00;147599.25;5134718;27;20621;-59
2024/01/26 02:53:08;;;;;;;5.17;3.17;;;;;;;6.20;100.00;147606.78;5134714;27;20187;-58
2024/01/26 02:55:35;;;;;;;4.67;3.13;;;;;;;6.03;100.00;147563.97;5134152;27;20238;-57
2024/01/26 02:58:04;;;;;;;4.87;3.40;;;;;;;6.08;100.00;147576.56;5134342;27;20187;-59
2024/01/26 03:00:31;;;;;;;3.87;3.07;;;;;;;6.08;100.00;147577.81;5134185;27;20239;-57
2024/01/26 03:02:58;;;;;;;5.77;3.90;;;;;;;6.06;100.00;147571.56;5134699;27;20259;-58
2024/01/26 03:05:25;;;;;;;8.33;3.77;;;;;;;6.02;100.00;147561.47;5134483;27;20724;-58
2024/01/26 03:07:52;;;;;;;3.93;3.57;;;;;;;6.03;100.00;147565.22;5134236;27;20201;-59
2024/01/26 03:10:19;;;;;;;7.37;4.50;;;;;;;6.05;100.00;147569.03;5134023;27;20183;-58
2024/01/26 03:12:47;;;;;;;6.13;3.70;;;;;;;6.08;100.00;147577.81;5134410;27;20216;-58
2024/01/26 03:15:16;;;;;;;5.87;3.43;;;;;;;6.11;100.00;147584.16;5133912;27;20183;-60
2024/01/26 03:17:43;;;;;;;6.53;3.60;;;;;;;6.13;100.00;147589.16;5133990;27;20197;-58
2024/01/26 03:20:11;;;;;;;8.90;3.87;;;;;;;6.14;100.00;147591.69;5134098;27;20183;-57
2024/01/26 03:22:38;;;;;;;7.50;4.10;;;;;;;6.03;100.00;147563.97;5133829;27;20187;-58
2024/01/26 03:25:05;;;;;;;6.27;3.70;;;;;;;6.10;100.00;147581.63;5133766;27;20239;-59
2024/01/26 03:27:32;;;;;;;3.57;3.27;;;;;;;6.19;100.00;147605.56;5133938;27;20194;-58
2024/01/26 03:29:59;;;;;;;6.67;3.83;;;;;;;6.24;100.00;147616.84;5133666;27;20200;-59
2024/01/26 03:32:28;;;;;;;6.70;4.10;;;;;;;6.27;100.00;147624.44;5133910;27;20231;-57
2024/01/26 03:34:55;;;;;;;9.00;4.00;;;;;;;6.23;100.00;147614.38;5133788;27;20314;-58
2024/01/26 03:37:22;;;;;;;6.57;4.57;;;;;;;6.25;100.00;147619.38;5132958;27;20191;-57
2024/01/26 03:39:49;;;;;;;5.27;3.57;;;;;;;6.15;100.00;147594.22;5133535;27;20235;-58
2024/01/26 03:42:16;;;;;;;4.60;3.57;;;;;;;6.24;100.00;147616.84;5133342;27;20252;-58
2024/01/26 03:44:43;;;;;;;5.60;2.97;;;;;;;6.31;100.00;147635.78;5133630;27;20183;-59
2024/01/26 03:47:11;;;;;;;6.70;4.10;;;;;;;6.33;100.00;147640.81;5133285;27;20231;-57
2024/01/26 03:49:45;;;;;;;7.43;3.17;;;;;;;6.30;100.00;147632.00;5133333;27;20270;-57
2024/01/26 03:52:12;;;;;;;3.50;3.20;;;;;;;6.37;100.00;147649.59;5133201;27;20175;-58
2024/01/26 03:54:39;;;;;;;3.43;3.13;;;;;;;6.28;100.00;147628.19;5133224;27;20234;-58
2024/01/26 03:57:07;;;;;;;7.63;3.63;;;;;;;6.29;100.00;147629.47;5133228;27;20186;-59
2024/01/26 03:59:34;;;;;;;3.83;3.43;;;;;;;6.25;100.00;147619.38;5133151;27;20183;-58
2024/01/26 04:02:01;;;;;;;4.80;3.10;;;;;;;6.36;100.00;147647.13;5133162;27;20242;-59
2024/01/26 04:04:28;;;;;;;3.80;3.50;;;;;;;6.26;100.00;147621.91;5133325;27;20183;-58
2024/01/26 04:06:56;;;;;;;7.03;3.17;;;;;;;6.33;100.00;147639.53;5133045;27;20182;-58
2024/01/26 04:09:23;;;;;;;6.17;3.30;;;;;;;6.29;100.00;147630.72;5132899;27;20239;-58
2024/01/26 04:11:50;;;;;;;3.87;2.90;;;;;;;6.33;100.00;147640.81;5133326;27;20633;-58
2024/01/26 04:14:17;;;;;;;3.40;3.10;;;;;;;6.31;100.00;147634.53;5132945;27;20186;-59
2024/01/26 04:16:44;;;;;;;6.63;3.63;;;;;;;6.15;100.00;147594.22;5133274;27;20603;-60
2024/01/26 04:19:11;;;;;;;4.63;3.40;;;;;;;6.18;100.00;147603.03;5132895;27;20183;-58
2024/01/26 04:21:38;;;;;;;4.93;3.80;;;;;;;6.20;100.00;147606.78;5133099;27;20210;-57
2024/01/26 04:24:07;;;;;;;4.87;3.80;;;;;;;6.17;100.00;147600.50;5132752;27;20190;-58
2024/01/26 04:26:35;;;;;;;4.90;3.73;;;;;;;6.08;100.00;147576.56;5132727;27;20183;-57
2024/01/26 04:29:02;;;;;;;3.97;3.20;;;;;;;6.16;100.00;147596.72;5133020;27;20243;-58
2024/01/26 04:31:29;;;;;;;4.20;3.30;;;;;;;6.12;100.00;147587.91;5132604;27;20182;-58
2024/01/26 04:33:56;;;;;;;3.67;3.20;;;;;;;6.21;100.00;147610.56;5132999;27;20601;-57
2024/01/26 04:36:23;;;;;;;6.80;4.03;;;;;;;6.03;100.00;147563.97;5132519;27;20236;-57
2024/01/26 04:38:50;;;;;;;4.43;3.63;;;;;;;6.16;100.00;147596.72;5132612;27;20178;-58
2024/01/26 04:41:18;;;;;;;6.20;3.53;;;;;;;6.21;100.00;147609.31;5132858;27;20206;-58
2024/01/26 04:43:45;;;;;;;5.63;3.57;;;;;;;6.17;100.00;147600.50;5132555;27;20179;-59
2024/01/26 04:46:12;;;;;;;7.13;3.40;;;;;;;6.17;100.00;147600.50;5132654;27;20708;-59
2024/01/26 04:48:39;;;;;;;5.33;3.90;;;;;;;5.92;100.00;147537.53;5132438;27;20252;-58
2024/01/26 04:51:06;;;;;;;5.03;3.07;;;;;;;6.16;100.00;147597.97;5136241;27;20628;-57
2024/01/26 04:53:33;;;;;;;5.73;3.53;;;;;;;6.15;100.00;147594.22;5136944;27;20235;-58
2024/01/26 04:56:01;;;;;;;4.20;3.37;;;;;;;6.04;100.00;147567.75;5136506;27;20229;-58
2024/01/26 04:58:29;;;;;;;6.60;4.13;;;;;;;6.16;100.00;147597.97;5136908;27;20210;-58
2024/01/26 05:00:56;;;;;;;5.17;4.40;;;;;;;6.08;100.00;147576.56;5136513;27;20202;-58
2024/01/26 05:03:23;;;;;;;8.97;4.57;;;;;;;6.19;100.00;147605.56;5136672;27;20201;-58
2024/01/26 05:05:51;;;;;;;4.27;3.43;;;;;;;6.20;100.00;147606.78;5136871;27;20622;-58
2024/01/26 05:08:18;;;;;;;7.60;3.63;;;;;;;6.17;100.00;147599.25;5136432;27;20187;-58
2024/01/26 05:10:45;;;;;;;7.87;4.30;;;;;;;6.16;100.00;147596.72;5136786;27;20610;-57
2024/01/26 05:13:12;;;;;;;4.93;4.00;;;;;;;6.16;100.00;147596.72;5136320;27;20183;-57
2024/01/26 05:15:40;;;;;;;4.47;4.00;;;;;;;6.15;100.00;147595.50;5136614;27;20186;-58
2024/01/26 05:18:08;;;;;;;5.20;4.13;;;;;;;6.13;100.00;147590.44;5136629;27;20240;-58
2024/01/26 05:20:35;;;;;;;5.83;4.20;;;;;;;6.06;100.00;147572.81;5136116;27;20235;-58
2024/01/26 05:23:02;;;;;;;10.03;4.10;;;;;;;6.08;100.00;147577.81;5136040;27;20203;-59
2024/01/26 05:25:29;;;;;;;12.13;3.63;;;;;;;5.75;100.00;147495.94;5136417;27;20615;-57
2024/01/26 05:27:56;;;;;;;9.20;3.50;;;;;;;5.86;100.00;147522.34;5136385;27;20178;-58
2024/01/26 05:30:23;;;;;;;13.50;4.47;;;;;;;5.75;100.00;147495.94;5135999;27;20239;-58
2024/01/26 05:32:51;;;;;;;4.43;3.30;;;;;;;5.88;100.00;147528.72;5136046;27;20259;-57
2024/01/26 05:35:18;;;;;;;4.53;3.70;;;;;;;5.87;100.00;147526.19;5136226;27;20179;-58
2024/01/26 05:37:45;;;;;;;10.50;4.03;;;;;;;5.75;100.00;147495.94;5135876;27;20194;-59
2024/01/26 05:40:14;;;;;;;4.00;3.50;;;;;;;5.76;100.00;147497.22;5136104;27;20613;-58
2024/01/26 05:42:41;;;;;;;5.73;3.93;;;;;;;5.76;100.00;147497.22;5136105;27;20310;-59
2024/01/26 05:45:09;;;;;;;5.27;3.60;;;;;;;5.69;100.00;147479.56;5135998;27;20530;-59
2024/01/26 05:47:37;;;;;;;9.93;3.83;;;;;;;5.71;100.00;147484.59;5135924;27;20179;-58
2024/01/26 05:50:06;;;;;;;7.20;3.57;;;;;;;5.68;100.00;147477.06;5135643;27;20186;-58
2024/01/26 05:52:33;;;;;;;9.47;3.40;;;;;;;5.86;100.00;147523.66;5135930;27;20182;-58
2024/01/26 05:55:01;;;;;;;9.30;3.63;;;;;;;5.89;100.00;147530.00;5135403;27;20287;-59
2024/01/26 05:57:28;;;;;;;17.90;3.77;;;;;;;5.87;100.00;147526.19;5135458;27;20248;-58
2024/01/26 05:59:55;;;;;;;5.10;4.10;;;;;;;6.03;100.00;147563.97;5135461;27;20251;-58
2024/01/26 06:02:22;;;;;;;9.57;3.73;;;;;;;6.17;100.00;147600.50;5135390;27;20215;-58
2024/01/26 06:04:49;;;;;;;4.23;3.73;;;;;;;6.22;100.00;147611.84;5135334;27;20183;-58
2024/01/26 06:07:17;;;;;;;6.10;4.40;;;;;;;6.33;100.00;147639.53;5135635;27;20183;-58
2024/01/26 06:09:44;;;;;;;5.70;3.87;;;;;;;6.33;100.00;147639.53;5135285;27;20193;-59
2024/01/26 06:12:11;;;;;;;9.03;4.30;;;;;;;6.48;100.00;147677.34;5135550;27;20179;-59
2024/01/26 06:14:38;;;;;;;5.10;3.90;;;;;;;6.56;100.00;147697.50;5135223;27;20247;-59
2024/01/26 06:17:05;;;;;;;6.67;4.47;;;;;;;6.51;100.00;147683.63;5135436;27;20645;-61
2024/01/26 06:19:33;;;;;;;25.60;4.60;;;;;;;6.51;100.00;147684.91;5135350;27;20641;-60
2024/01/26 06:22:00;;;;;;;9.10;4.63;;;;;;;6.49;100.00;147678.63;5135129;27;20206;-59
2024/01/26 06:24:29;;;;;;;7.83;4.20;;;;;;;6.46;100.00;147672.28;5135315;27;20186;-61
2024/01/26 06:26:58;;;;;;;6.10;3.43;;;;;;;6.52;100.00;147687.44;5136516;27;20186;-59
2024/01/26 06:29:25;;;;;;;7.57;4.23;;;;;;;6.25;100.00;147619.38;5136824;27;20182;-62
2024/01/26 06:31:52;;;;;;;4.53;3.70;;;;;;;6.58;100.00;147701.25;5136381;27;20182;-62
2024/01/26 06:34:19;;;;;;;7.87;4.03;;;;;;;6.68;100.00;147727.75;5136277;27;20199;-60
2024/01/26 06:36:46;;;;;;;8.17;5.83;;;;;;;6.72;100.00;147736.56;5137320;27;20183;-60
2024/01/26 06:39:13;;;;;;;6.30;4.03;;;;;;;6.78;100.00;147751.69;5136251;27;20186;-62
2024/01/26 06:41:43;;;;;;;11.87;5.27;;;;;;;6.84;100.00;147766.78;5136313;27;20207;-62
2024/01/26 06:44:13;;;;;;;9.07;5.07;;;;;;;6.89;100.00;147779.41;5135697;27;20236;-62
2024/01/26 06:46:40;;;;;;;8.87;6.10;;;;;;;6.88;100.00;147776.88;5135037;27;20187;-63
2024/01/26 06:49:08;;;;;;;6.03;5.27;;;;;;;6.96;100.00;147795.81;5135002;27;20225;-63
2024/01/26 06:51:35;;;;;;;15.53;3.90;;;;;;;7.04;100.00;147815.97;5134671;27;20190;-62
2024/01/26 06:54:02;;;;;;;9.33;4.40;;;;;;;7.06;100.00;147822.25;5134596;27;20193;-63
2024/01/26 06:56:29;;;;;;;7.87;3.67;;;;;;;7.08;100.00;147826.03;5134616;27;20186;-62
2024/01/26 06:58:58;;;;;;;4.73;3.13;;;;;;;7.15;100.00;147843.69;5135244;27;20216;-61
2024/01/26 07:01:25;;;;;;;10.73;3.83;;;;;;;7.24;100.00;147866.38;5134957;27;20218;-61
2024/01/26 07:03:52;;;;;;;7.67;3.87;;;;;;;7.20;100.00;147857.56;5136023;27;20658;-62
2024/01/26 07:06:19;;;;;;;13.60;4.17;;;;;;;7.49;100.00;147928.13;5135325;27;20258;-63
2024/01/26 07:08:46;;;;;;;4.37;3.50;;;;;;;7.42;100.00;147911.78;5135333;27;20179;-64
2024/01/26 07:11:14;;;;;;;8.03;3.17;;;;;;;7.58;100.00;147952.13;5134981;27;20217;-62
2024/01/26 07:13:41;;;;;;;6.27;3.53;;;;;;;7.67;100.00;147973.56;5134294;27;20218;-62
2024/01/26 07:16:10;;;;;;;9.87;3.90;;;;;;;7.80;100.00;148007.59;5134456;27;20197;-62
2024/01/26 07:18:37;;;;;;;8.13;3.27;;;;;;;7.93;100.00;148037.88;5134307;27;20209;-62
2024/01/26 07:21:08;;;;;;;4.43;3.37;;;;;;;8.07;100.00;148074.44;5134598;27;20218;-62
2024/01/26 07:23:35;;;;;;;10.63;3.87;;;;;;;8.30;100.00;148131.25;5134681;27;20198;-62
2024/01/26 07:26:02;;;;;;;4.63;3.57;;;;;;;8.64;100.00;148215.81;5135017;27;20183;-63
2024/01/26 07:28:29;;;;;;;7.03;3.07;;;;;;;8.87;100.00;148272.63;5135285;27;20185;-63
2024/01/26 07:30:56;;;;;;;14.10;3.57;;;;;;;9.03;100.00;148314.28;5134948;27;20231;-64
2024/01/26 07:33:25;;;;;;;7.37;4.10;;;;;;;9.07;100.00;148323.09;5135062;27;20175;-62
2024/01/26 07:35:52;;;;;;;10.20;3.80;;;;;;;9.16;100.00;148347.06;5134834;27;20637;-63
2024/01/26 07:38:19;;;;;;;9.80;3.63;;;;;;;9.03;100.00;148313.00;5134618;27;20187;-63
2024/01/26 07:40:46;;;;;;;8.77;4.37;;;;;;;9.00;100.00;148305.41;5134369;27;20251;-63
2024/01/26 07:43:13;;;;;;;7.77;4.20;;;;;;;8.92;100.00;148286.47;5133825;27;20206;-63
2024/01/26 07:45:40;;;;;;;7.80;4.07;;;;;;;8.72;100.00;148236.00;5133708;27;20190;-64
2024/01/26 07:48:12;;;;;;;6.70;3.93;;;;;;;8.58;100.00;148200.66;5133725;27;20592;-62
2024/01/26 07:50:40;;;;;;;5.70;3.70;;;;;;;8.55;100.00;148194.34;5133159;27;20282;-58
2024/01/26 07:53:07;;;;;;;7.77;4.13;;;;;;;8.52;100.00;148186.78;5131983;27;20686;-58
2024/01/26 07:55:34;;;;;;;6.67;3.43;;;;;;;8.21;100.00;148108.50;5133081;27;20627;-59
2024/01/26 07:58:01;;;;;;;5.93;3.37;;;;;;;8.38;100.00;148151.44;5132881;27;20308;-59
2024/01/26 08:00:28;;;;;;;5.60;3.33;;;;;;;8.39;100.00;148153.97;5133224;27;20187;-59
2024/01/26 08:02:57;;;;;;;6.97;3.90;;;;;;;8.36;100.00;148146.38;5133155;27;20218;-60
2024/01/26 08:05:24;;;;;;;4.17;3.40;;;;;;;8.41;100.00;148157.72;5133128;27;20183;-58
2024/01/26 08:07:53;;;;;;;9.70;4.73;;;;;;;8.35;100.00;148143.88;5132885;27;20194;-60
2024/01/26 08:10:20;;;;;;;7.50;3.93;;;;;;;8.49;100.00;148177.91;5132731;27;20175;-59
2024/01/26 08:12:47;;;;;;;4.37;4.07;;;;;;;8.49;100.00;148177.91;5132868;27;20236;-60
2024/01/26 08:15:14;;;;;;;4.80;4.00;;;;;;;8.39;100.00;148153.97;5132804;27;20194;-59
2024/01/26 08:17:41;;;;;;;7.23;3.80;;;;;;;8.50;100.00;148181.72;5133144;27;20599;-59
2024/01/26 08:20:09;;;;;;;15.13;4.80;;;;;;;8.45;100.00;148167.84;5132966;27;20190;-60
2024/01/26 08:22:38;;;;;;;6.20;4.00;;;;;;;8.62;100.00;148212.00;5132800;27;20199;-60
2024/01/26 08:25:08;;;;;;;7.47;4.47;;;;;;;8.66;100.00;148222.09;5132538;27;20187;-59
2024/01/26 08:27:35;;;;;;;5.10;4.10;;;;;;;8.71;100.00;148233.47;5132361;27;20212;-61
2024/01/26 08:30:02;;;;;;;13.80;3.87;;;;;;;8.75;100.00;148243.56;5132609;27;20714;-60
2024/01/26 08:32:30;;;;;;;4.27;3.87;;;;;;;8.75;100.00;148243.56;5132486;27;20183;-58
2024/01/26 08:34:57;;;;;;;9.33;3.80;;;;;;;8.88;100.00;148275.09;5133122;27;20186;-59
2024/01/26 08:37:24;;;;;;;7.23;4.37;;;;;;;9.03;100.00;148314.28;5132846;27;20202;-59
2024/01/26 08:39:52;;;;;;;7.60;4.37;;;;;;;9.13;100.00;148338.22;5132492;27;20235;-59
2024/01/26 08:42:21;;;;;;;15.87;4.23;;;;;;;9.32;100.00;148384.97;5133182;27;20562;-60
2024/01/26 08:44:48;;;;;;;16.03;4.17;;;;;;;9.56;100.00;148446.84;5132588;27;20278;-59
2024/01/26 08:47:15;;;;;;;4.60;3.17;;;;;;;9.66;100.00;148470.84;5132792;27;20629;-58
2024/01/26 08:49:42;;;;;;;4.23;3.30;;;;;;;9.89;100.00;148527.66;5133617;28;20183;-64
2024/01/26 08:52:09;;;;;;;4.43;3.10;;;;;;;10.05;100.00;148568.13;5132888;27;20179;-65
2024/01/26 08:54:36;;;;;;;3.53;3.10;;;;;;;10.13;100.00;148588.34;5133943;27;20237;-65
2024/01/26 08:57:03;;;;;;;3.80;3.00;;;;;;;10.30;100.00;148630.09;5132845;27;20641;-64
2024/01/26 08:59:32;;;;;;;5.13;2.93;;;;;;;10.30;100.00;148630.09;5132953;27;20187;-63
2024/01/26 09:01:59;;;;;;;12.97;3.70;;;;;;;10.21;100.00;148607.34;5133012;27;20540;-64
2024/01/26 09:04:26;;;;;;;8.47;3.10;;;;;;;10.19;100.00;148603.53;5132677;27;20187;-64
2024/01/26 09:06:53;;;;;;;7.60;3.83;;;;;;;10.15;100.00;148593.41;5132831;27;20215;-63
2024/01/26 09:09:20;;;;;;;3.53;2.60;;;;;;;10.08;100.00;148576.97;5132828;27;20238;-65
2024/01/26 09:11:47;;;;;;;8.10;3.37;;;;;;;10.06;100.00;148570.63;5133798;27;20182;-63
2024/01/26 09:14:15;;;;;;;3.80;3.13;;;;;;;9.82;100.00;148510.00;5133145;27;20179;-63
2024/01/26 09:16:43;;;;;;;4.90;3.00;;;;;;;9.69;100.00;148478.41;5132493;27;20649;-63
2024/01/26 09:19:11;;;;;;;2.83;2.63;;;;;;;9.82;100.00;148510.00;5132434;27;20191;-63
2024/01/26 09:21:38;;;;;;;5.03;3.20;;;;;;;9.85;100.00;148518.81;5132773;27;20182;-64
2024/01/26 09:24:05;;;;;;;3.13;2.73;;;;;;;9.88;100.00;148525.19;5132312;27;20199;-63
2024/01/26 09:26:33;;;;;;;10.30;3.90;;;;;;;9.88;100.00;148525.19;5132772;27;20703;-64
2024/01/26 09:29:00;;;;;;;11.63;3.83;;;;;;;9.69;100.00;148477.16;5132473;27;20549;-64
2024/01/26 09:31:27;;;;;;;3.97;2.90;;;;;;;9.72;100.00;148484.75;5133327;27;20186;-64
2024/01/26 09:33:56;;;;;;;3.10;2.87;;;;;;;9.63;100.00;148463.28;5134836;27;20622;-64
2024/01/26 09:36:23;;;;;;;3.87;3.50;;;;;;;9.53;100.00;148439.28;5135393;27;20193;-65
2024/01/26 09:38:51;;;;;;;5.47;3.97;;;;;;;9.55;100.00;148443.03;5138418;27;20187;-65
2024/01/26 09:41:18;;;;;;;5.43;3.03;;;;;;;9.38;100.00;148401.34;5138122;27;20201;-63
2024/01/26 09:43:45;;;;;;;11.33;3.13;;;;;;;9.58;100.00;148451.91;5137443;27;20203;-63
2024/01/26 09:46:12;;;;;;;3.30;3.00;;;;;;;9.39;100.00;148403.91;5136548;27;20194;-65
2024/01/26 09:48:41;;;;;;;4.53;3.73;;;;;;;9.27;100.00;148373.59;5136580;27;20701;-63
2024/01/26 09:51:09;;;;;;;13.33;3.50;;;;;;;9.09;100.00;148328.13;5136201;27;20183;-63
2024/01/26 09:53:38;;;;;;;4.57;3.43;;;;;;;9.00;100.00;148305.41;5136795;27;20552;-62
2024/01/26 09:56:07;;;;;;;8.23;3.60;;;;;;;9.02;100.00;148311.75;5137365;27;20241;-63
2024/01/26 09:58:34;;;;;;;5.60;3.63;;;;;;;8.76;100.00;148244.81;5136850;27;20186;-64
2024/01/26 10:01:01;;;;;;;7.17;3.80;;;;;;;8.79;100.00;148252.38;5136391;27;20182;-63
2024/01/26 10:03:28;;;;;;;5.63;3.60;;;;;;;8.89;100.00;148277.66;5136720;27;20221;-63
2024/01/26 10:05:55;;;;;;;6.77;4.03;;;;;;;8.81;100.00;148258.72;5136503;27;20664;-63
2024/01/26 10:08:24;;;;;;;12.27;4.97;;;;;;;8.68;100.00;148225.91;5136688;27;20225;-63
2024/01/26 10:10:51;;;;;;;6.70;4.83;;;;;;;8.51;100.00;148183.00;5134979;27;20199;-62
2024/01/26 10:13:18;;;;;;;10.33;6.13;;;;;;;8.35;100.00;148142.63;5135847;27;20183;-62
2024/01/26 10:15:45;;;;;;;8.87;6.87;;;;;;;8.32;100.00;148135.06;5135637;27;20195;-63
2024/01/26 10:18:12;;;;;;;7.53;6.90;;;;;;;8.17;100.00;148098.41;5134935;27;20179;-62
2024/01/26 10:20:39;;;;;;;7.23;6.63;;;;;;;8.00;100.00;148055.50;5135593;27;20581;-64
2024/01/26 10:23:06;;;;;;;7.23;6.73;;;;;;;7.83;100.00;148013.91;5135250;27;20227;-64
2024/01/26 10:25:37;;;;;;;5.57;5.23;;;;;;;7.41;100.00;147909.25;5136289;27;20660;-64
2024/01/26 10:28:09;;;;;;;6.10;5.80;;;;;;;7.28;100.00;147877.72;5135226;27;20273;-64
2024/01/26 10:30:43;;;;;;;6.77;6.27;;;;;;;7.40;100.00;147906.72;5135768;27;20182;-64
2024/01/26 10:33:13;;;;;;;7.10;6.47;;;;;;;7.50;100.00;147930.69;5135816;27;20232;-64
2024/01/26 10:35:45;;;;;;;7.50;6.67;;;;;;;7.38;100.00;147900.41;5134761;27;20183;-64
2024/01/26 10:38:14;;;;;;;8.40;7.70;;;;;;;7.54;100.00;147940.75;5135408;27;20609;-63
2024/01/26 10:40:45;;;;;;;9.33;8.37;;;;;;;7.54;100.00;147942.03;5134854;27;20187;-63
2024/01/26 10:43:13;;;;;;;7.50;6.90;;;;;;;7.35;100.00;147894.09;5135221;27;20601;-63
2024/01/26 10:45:40;;;;;;;7.30;6.80;;;;;;;7.48;100.00;147925.59;5134701;27;20179;-63
2024/01/26 10:48:09;;;;;;;8.40;7.73;;;;;;;7.18;100.00;147851.22;5133781;27;20199;-63
2024/01/26 10:50:37;;;;;;;7.40;7.00;;;;;;;7.37;100.00;147899.16;5134871;27;20182;-64
2024/01/26 10:53:05;;;;;;;7.53;6.90;;;;;;;7.43;100.00;147914.25;5134742;27;20602;-64
2024/01/26 10:55:32;;;;;;;7.40;6.90;;;;;;;7.45;100.00;147918.06;5134580;27;20234;-64
2024/01/26 10:58:03;;;;;;;7.70;7.10;;;;;;;7.30;100.00;147881.47;5135246;27;20191;-64
2024/01/26 11:00:30;;;;;;;7.93;7.20;;;;;;;7.55;100.00;147943.28;5135295;27;20214;-65
2024/01/26 11:02:57;;;;;;;7.67;7.10;;;;;;;7.59;100.00;147954.66;5135365;27;20244;-64
2024/01/26 11:05:24;;;;;;;7.90;7.50;;;;;;;7.47;100.00;147923.13;5134622;27;20202;-64
2024/01/26 11:07:53;;;;;;;10.10;8.67;;;;;;;7.46;100.00;147921.84;5134856;27;20562;-63
2024/01/26 11:10:23;;;;;;;8.13;7.50;;;;;;;7.58;100.00;147952.13;5134194;27;20183;-65
2024/01/26 11:13:03;;;;;;;8.00;7.57;;;;;;;7.62;100.00;147962.19;5134582;27;20602;-64
2024/01/26 11:15:30;;;;;;;9.93;9.03;;;;;;;7.77;100.00;148000.00;5134571;27;20178;-66
2024/01/26 11:17:58;;;;;;;8.33;7.73;;;;;;;7.70;100.00;147981.09;5134711;27;20270;-64
2024/01/26 11:20:28;;;;;;;8.07;7.47;;;;;;;7.68;100.00;147977.31;5134581;27;20179;-64
2024/01/26 11:23:02;;;;;;;8.90;7.63;;;;;;;7.67;100.00;147974.81;5134219;27;20207;-64
2024/01/26 11:25:35;;;;;;;8.07;7.30;;;;;;;7.58;100.00;147950.84;5134213;27;20501;-64